Terminal Aerodrome Forecast
Issued by NWS

Home | Current Version | Previous Version | Text Only | Print | Product List | Glossary On
Versions: 1 2 3 4 5 6 7 8 9 10 11 12 13 14 15 16 17 18
000
FTUS45 KRIW 180540
TAFCOD
TAF
KCOD 180540Z 1806/1906 25009G18KT P6SM BKN200 WS010/26035KT
     FM181800 21011KT P6SM SCT060 BKN200 WS018/26035KT
      AMD LTD TO CLD VIS AND WIND=

USA.gov is the U.S. government's official web portal to all federal, state and local government web resources and services.